Sturgeon Bay, WI (54235)

5:55 AM CDT on July 30, 2014 (GMT -0500)
Leif Everson Observatory (KWISTURG1) Elev 636 ft | 44.83 °N, 87.34 °W | Change Station
Active Advisory: Special Statement

Current weather conditions updated 3 minutes ago

Mostly Cloudy
Mostly Cloudy
52.5 °F
Feels Like 52.5 °F
N
0.0
Wind Variable Wind from NE
Gusts 1.0 mph

Today is forecast to be nearly the same temperature as yesterday.

Today
High -- | Low -- °F
--% Chance of Precip.
Yesterday
High -- | Low -- °F
Precip. -- in
5:33 AM 8:18 PM
Waxing Crescent, 11% visible
Pressure 30.02 in
Visibility 0.5 miles
Clouds Mostly Cloudy 1100 ft
Dew Point 52 °F
Humidity 100%
Rainfall 0.00 in
Snow Depth Not available.
UV 0.0 out of 12
Pollen 7.00 out of 12
Air Quality Not available.
Flu Activity Not available.
METAR KSUE 301035Z AUTO 00000KT 1/2SM BKN011 12/11 A3002 RMK AO1

More Conditions Fewer Conditions

Pressure 30.02 in
Visibility 0.5 miles
Clouds Mostly Cloudy 1100 ft
Dew Point 52 °F
Humidity 100%
Rainfall 0.00 in
Snow Depth Not available.
UV 0.0 out of 12
Pollen 7.00 out of 12
Air Quality Not available.
Flu Activity Not available.
METAR KSUE 301035Z AUTO 00000KT 1/2SM BKN011 12/11 A3002 RMK AO1

More Conditions Fewer Conditions

10-Day Weather Forecast

Almanac

Astronomy

Jul. 30, 2014 Rise Set
Actual Time 5:33 AM CDT 8:18 PM CDT
Civil Twilight 4:59 AM CDT 8:51 PM CDT
Nautical Twilight 4:16 AM CDT 9:34 PM CDT
Astronomical Twilight 3:26 AM CDT 10:23 PM CDT
Moon 9:15 AM CDT 9:48 PM CDT
Length of Visible Light 15h 52m
Length of Day
14h 45m
Tomorrow will be 2m 21s shorter.
Waxing Crescent, 11% of the Moon is Illuminated
Today
Waxing Crescent
Aug 3
First Quarter
Aug 10
Full
Aug 17
Last Quarter
Aug 25
New

Today's Extremes

State Highs State Lows

Community

WunderPhotos

Upload Photos

1,739,037 photos uploaded!

WunderBlogs® & News

Nearby

Snow Depth

Station Depth Elevation
No new snow has been reported.

Earthquake Activity

City Distance Mag. Time & Date
No recent earthquake activity has been reported nearby.
Minimum magnitude displayed is 2.5.

Coastal Water Temperatures

Place Temperature
No Stations Reporting

Nearby Weather Stations

Station Location Temp. Dew Point Humidity Wind Precip. Elev Updated Type
Leif Everson Observatory, Sturgeon Bay, WI 52.5 °F 52 °F 100% NE  at  0.0 mph 0.00 in / hr 636 ft 5:52 AM CDT Normal
Egg Harbor WI, Egg Harbor, WI 56.5 °F 56 °F 99% ENE  at  0.0 mph 0.00 in / hr 650 ft 5:55 AM CDT Normal
Tyco Fire Protection, Marinette, WI 55.1 °F 53 °F 93% NW  at  1.0 mph 0.00 in / hr 617 ft 5:54 AM CDT Normal

Show More Stations Show Fewer Stations